sensor_id;sensor_type;location;lat;lon;timestamp;P1;durP1;ratioP1;P2;durP2;ratioP2
11807;SDS011;5961;42.640;23.380;2023-07-08T00:00:38;19.60;;;12.77;;
11807;SDS011;5961;42.640;23.380;2023-07-08T00:03:07;15.07;;;13.07;;
11807;SDS011;5961;42.640;23.380;2023-07-08T00:05:33;17.80;;;14.00;;
11807;SDS011;5961;42.640;23.380;2023-07-08T00:08:00;15.33;;;13.77;;
11807;SDS011;5961;42.640;23.380;2023-07-08T00:10:27;14.83;;;13.23;;
11807;SDS011;5961;42.640;23.380;2023-07-08T00:12:55;14.90;;;13.07;;
11807;SDS011;5961;42.640;23.380;2023-07-08T00:15:25;16.23;;;14.57;;
11807;SDS011;5961;42.640;23.380;2023-07-08T00:17:53;16.07;;;14.37;;
11807;SDS011;5961;42.640;23.380;2023-07-08T00:20:23;18.60;;;14.27;;
11807;SDS011;5961;42.640;23.380;2023-07-08T00:22:56;16.40;;;14.70;;
11807;SDS011;5961;42.640;23.380;2023-07-08T00:25:25;17.07;;;14.50;;
11807;SDS011;5961;42.640;23.380;2023-07-08T00:27:52;16.80;;;14.10;;
11807;SDS011;5961;42.640;23.380;2023-07-08T00:30:21;16.37;;;13.63;;
11807;SDS011;5961;42.640;23.380;2023-07-08T00:32:49;15.90;;;14.23;;
11807;SDS011;5961;42.640;23.380;2023-07-08T00:35:19;16.80;;;15.00;;
11807;SDS011;5961;42.640;23.380;2023-07-08T00:37:54;16.00;;;14.30;;
11807;SDS011;5961;42.640;23.380;2023-07-08T00:40:26;20.70;;;14.23;;
11807;SDS011;5961;42.640;23.380;2023-07-08T00:42:53;17.17;;;14.13;;
11807;SDS011;5961;42.640;23.380;2023-07-08T00:45:37;19.27;;;14.73;;
11807;SDS011;5961;42.640;23.380;2023-07-08T00:48:12;16.07;;;14.37;;
11807;SDS011;5961;42.640;23.380;2023-07-08T00:50:45;19.13;;;14.13;;
11807;SDS011;5961;42.640;23.380;2023-07-08T00:55:58;15.27;;;13.77;;
11807;SDS011;5961;42.640;23.380;2023-07-08T00:58:30;16.17;;;14.47;;
11807;SDS011;5961;42.640;23.380;2023-07-08T01:00:59;15.67;;;13.33;;
11807;SDS011;5961;42.640;23.380;2023-07-08T01:03:30;15.77;;;14.13;;
11807;SDS011;5961;42.640;23.380;2023-07-08T01:06:02;16.10;;;13.77;;
11807;SDS011;5961;42.640;23.380;2023-07-08T01:08:31;16.47;;;13.40;;
11807;SDS011;5961;42.640;23.380;2023-07-08T01:10:59;14.93;;;13.33;;
11807;SDS011;5961;42.640;23.380;2023-07-08T01:13:28;15.17;;;13.50;;
11807;SDS011;5961;42.640;23.380;2023-07-08T01:15:59;15.80;;;14.10;;
11807;SDS011;5961;42.640;23.380;2023-07-08T01:18:26;16.63;;;12.47;;
11807;SDS011;5961;42.640;23.380;2023-07-08T01:20:53;14.63;;;13.03;;
11807;SDS011;5961;42.640;23.380;2023-07-08T01:23:22;15.17;;;13.57;;
11807;SDS011;5961;42.640;23.380;2023-07-08T01:25:50;15.27;;;13.53;;
11807;SDS011;5961;42.640;23.380;2023-07-08T01:28:17;14.73;;;13.13;;
11807;SDS011;5961;42.640;23.380;2023-07-08T01:30:44;14.17;;;12.63;;
11807;SDS011;5961;42.640;23.380;2023-07-08T01:33:13;15.57;;;12.83;;
11807;SDS011;5961;42.640;23.380;2023-07-08T01:35:44;14.30;;;12.90;;
11807;SDS011;5961;42.640;23.380;2023-07-08T01:38:12;15.90;;;13.17;;
11807;SDS011;5961;42.640;23.380;2023-07-08T01:40:49;16.93;;;13.00;;
11807;SDS011;5961;42.640;23.380;2023-07-08T01:43:18;14.20;;;12.80;;
11807;SDS011;5961;42.640;23.380;2023-07-08T01:45:44;13.97;;;12.17;;
11807;SDS011;5961;42.640;23.380;2023-07-08T01:48:12;15.57;;;12.70;;
11807;SDS011;5961;42.640;23.380;2023-07-08T01:50:42;17.53;;;12.90;;
11807;SDS011;5961;42.640;23.380;2023-07-08T01:53:14;13.63;;;12.23;;
11807;SDS011;5961;42.640;23.380;2023-07-08T01:55:42;14.33;;;12.77;;
11807;SDS011;5961;42.640;23.380;2023-07-08T01:58:10;17.40;;;13.07;;
11807;SDS011;5961;42.640;23.380;2023-07-08T02:00:38;13.57;;;12.23;;
11807;SDS011;5961;42.640;23.380;2023-07-08T02:03:05;16.77;;;12.67;;
11807;SDS011;5961;42.640;23.380;2023-07-08T02:05:31;15.80;;;13.00;;
11807;SDS011;5961;42.640;23.380;2023-07-08T02:07:58;13.57;;;12.13;;
11807;SDS011;5961;42.640;23.380;2023-07-08T02:10:25;15.60;;;12.30;;
11807;SDS011;5961;42.640;23.380;2023-07-08T02:12:51;15.40;;;12.40;;
11807;SDS011;5961;42.640;23.380;2023-07-08T02:15:20;14.03;;;12.23;;
11807;SDS011;5961;42.640;23.380;2023-07-08T02:17:46;13.87;;;12.00;;
11807;SDS011;5961;42.640;23.380;2023-07-08T02:20:14;13.13;;;11.77;;
11807;SDS011;5961;42.640;23.380;2023-07-08T02:22:41;13.20;;;11.47;;
11807;SDS011;5961;42.640;23.380;2023-07-08T02:25:07;14.20;;;11.40;;
11807;SDS011;5961;42.640;23.380;2023-07-08T02:27:35;16.33;;;11.83;;
11807;SDS011;5961;42.640;23.380;2023-07-08T02:30:02;13.37;;;11.30;;
11807;SDS011;5961;42.640;23.380;2023-07-08T02:32:31;14.10;;;11.47;;
11807;SDS011;5961;42.640;23.380;2023-07-08T02:35:00;12.33;;;11.13;;
11807;SDS011;5961;42.640;23.380;2023-07-08T02:37:28;13.83;;;11.40;;
11807;SDS011;5961;42.640;23.380;2023-07-08T02:39:54;14.77;;;11.40;;
11807;SDS011;5961;42.640;23.380;2023-07-08T02:42:21;14.03;;;11.50;;
11807;SDS011;5961;42.640;23.380;2023-07-08T02:44:48;12.40;;;11.17;;
11807;SDS011;5961;42.640;23.380;2023-07-08T02:47:15;12.50;;;11.37;;
11807;SDS011;5961;42.640;23.380;2023-07-08T02:49:43;14.17;;;12.30;;
11807;SDS011;5961;42.640;23.380;2023-07-08T02:52:10;13.37;;;12.03;;
11807;SDS011;5961;42.640;23.380;2023-07-08T02:54:37;12.93;;;11.50;;
11807;SDS011;5961;42.640;23.380;2023-07-08T02:57:04;15.33;;;11.90;;
11807;SDS011;5961;42.640;23.380;2023-07-08T02:59:31;13.27;;;11.90;;
11807;SDS011;5961;42.640;23.380;2023-07-08T03:01:57;12.57;;;11.37;;
11807;SDS011;5961;42.640;23.380;2023-07-08T03:04:24;13.23;;;11.83;;
11807;SDS011;5961;42.640;23.380;2023-07-08T03:06:52;13.47;;;12.07;;
11807;SDS011;5961;42.640;23.380;2023-07-08T03:09:19;13.60;;;12.30;;
11807;SDS011;5961;42.640;23.380;2023-07-08T03:11:46;13.43;;;11.53;;
11807;SDS011;5961;42.640;23.380;2023-07-08T03:14:13;13.53;;;11.80;;
11807;SDS011;5961;42.640;23.380;2023-07-08T03:16:39;12.27;;;10.93;;
11807;SDS011;5961;42.640;23.380;2023-07-08T03:19:07;13.37;;;11.97;;
11807;SDS011;5961;42.640;23.380;2023-07-08T03:21:36;14.47;;;11.00;;
11807;SDS011;5961;42.640;23.380;2023-07-08T03:24:05;12.13;;;10.90;;
11807;SDS011;5961;42.640;23.380;2023-07-08T03:26:31;12.30;;;11.10;;
11807;SDS011;5961;42.640;23.380;2023-07-08T03:28:59;13.10;;;10.63;;
11807;SDS011;5961;42.640;23.380;2023-07-08T03:31:26;11.33;;;9.90;;
11807;SDS011;5961;42.640;23.380;2023-07-08T03:33:52;10.50;;;9.40;;
11807;SDS011;5961;42.640;23.380;2023-07-08T03:36:19;13.03;;;9.43;;
11807;SDS011;5961;42.640;23.380;2023-07-08T03:38:49;10.57;;;9.47;;
11807;SDS011;5961;42.640;23.380;2023-07-08T03:41:18;13.57;;;9.70;;
11807;SDS011;5961;42.640;23.380;2023-07-08T03:43:45;10.17;;;9.17;;
11807;SDS011;5961;42.640;23.380;2023-07-08T03:46:12;10.47;;;9.33;;
11807;SDS011;5961;42.640;23.380;2023-07-08T03:48:39;11.23;;;9.13;;
11807;SDS011;5961;42.640;23.380;2023-07-08T03:51:07;13.13;;;9.10;;
11807;SDS011;5961;42.640;23.380;2023-07-08T03:53:36;10.03;;;8.77;;
11807;SDS011;5961;42.640;23.380;2023-07-08T03:56:03;9.57;;;8.57;;
11807;SDS011;5961;42.640;23.380;2023-07-08T03:58:31;10.37;;;9.17;;
11807;SDS011;5961;42.640;23.380;2023-07-08T04:00:57;10.50;;;9.10;;
11807;SDS011;5961;42.640;23.380;2023-07-08T04:03:24;10.37;;;8.30;;
11807;SDS011;5961;42.640;23.380;2023-07-08T04:05:51;9.97;;;8.93;;
11807;SDS011;5961;42.640;23.380;2023-07-08T04:08:17;9.83;;;8.83;;
11807;SDS011;5961;42.640;23.380;2023-07-08T04:10:44;11.53;;;9.23;;
11807;SDS011;5961;42.640;23.380;2023-07-08T04:13:11;9.40;;;8.40;;
11807;SDS011;5961;42.640;23.380;2023-07-08T04:15:39;10.03;;;8.13;;
11807;SDS011;5961;42.640;23.380;2023-07-08T04:18:05;14.57;;;8.70;;
11807;SDS011;5961;42.640;23.380;2023-07-08T04:20:32;11.17;;;8.73;;
11807;SDS011;5961;42.640;23.380;2023-07-08T04:22:59;10.73;;;8.57;;
11807;SDS011;5961;42.640;23.380;2023-07-08T04:25:25;9.50;;;8.50;;
11807;SDS011;5961;42.640;23.380;2023-07-08T04:27:52;11.90;;;8.33;;
11807;SDS011;5961;42.640;23.380;2023-07-08T04:30:23;10.43;;;8.23;;
11807;SDS011;5961;42.640;23.380;2023-07-08T04:32:52;10.40;;;8.90;;
11807;SDS011;5961;42.640;23.380;2023-07-08T04:35:21;9.23;;;8.20;;
11807;SDS011;5961;42.640;23.380;2023-07-08T04:37:47;11.77;;;8.50;;
11807;SDS011;5961;42.640;23.380;2023-07-08T04:40:16;9.50;;;8.10;;
11807;SDS011;5961;42.640;23.380;2023-07-08T04:42:47;12.10;;;8.60;;
11807;SDS011;5961;42.640;23.380;2023-07-08T04:45:16;9.60;;;8.60;;
11807;SDS011;5961;42.640;23.380;2023-07-08T04:47:44;10.70;;;8.43;;
11807;SDS011;5961;42.640;23.380;2023-07-08T04:50:13;11.00;;;8.13;;
11807;SDS011;5961;42.640;23.380;2023-07-08T04:52:40;11.90;;;8.50;;
11807;SDS011;5961;42.640;23.380;2023-07-08T04:55:07;9.80;;;8.63;;
11807;SDS011;5961;42.640;23.380;2023-07-08T04:57:35;10.03;;;9.03;;
11807;SDS011;5961;42.640;23.380;2023-07-08T05:00:03;9.60;;;8.70;;
11807;SDS011;5961;42.640;23.380;2023-07-08T05:02:32;9.30;;;8.30;;
11807;SDS011;5961;42.640;23.380;2023-07-08T05:04:59;12.00;;;8.67;;
11807;SDS011;5961;42.640;23.380;2023-07-08T05:07:27;11.00;;;9.43;;
11807;SDS011;5961;42.640;23.380;2023-07-08T05:09:54;11.53;;;9.17;;
11807;SDS011;5961;42.640;23.380;2023-07-08T05:12:21;13.47;;;9.03;;
11807;SDS011;5961;42.640;23.380;2023-07-08T05:14:47;9.70;;;8.63;;
11807;SDS011;5961;42.640;23.380;2023-07-08T05:17:14;10.13;;;9.13;;
11807;SDS011;5961;42.640;23.380;2023-07-08T05:19:41;11.37;;;8.40;;
11807;SDS011;5961;42.640;23.380;2023-07-08T05:22:10;10.67;;;8.67;;
11807;SDS011;5961;42.640;23.380;2023-07-08T05:24:38;12.73;;;8.63;;
11807;SDS011;5961;42.640;23.380;2023-07-08T05:27:05;9.93;;;8.00;;
11807;SDS011;5961;42.640;23.380;2023-07-08T05:29:31;9.00;;;8.10;;
11807;SDS011;5961;42.640;23.380;2023-07-08T05:31:58;9.37;;;7.93;;
11807;SDS011;5961;42.640;23.380;2023-07-08T05:34:25;8.57;;;7.67;;
11807;SDS011;5961;42.640;23.380;2023-07-08T05:36:51;9.97;;;8.10;;
11807;SDS011;5961;42.640;23.380;2023-07-08T05:39:18;9.20;;;7.67;;
11807;SDS011;5961;42.640;23.380;2023-07-08T05:41:46;9.77;;;7.30;;
11807;SDS011;5961;42.640;23.380;2023-07-08T05:44:13;11.13;;;8.00;;
11807;SDS011;5961;42.640;23.380;2023-07-08T05:46:40;8.83;;;7.93;;
11807;SDS011;5961;42.640;23.380;2023-07-08T05:49:06;9.07;;;7.63;;
11807;SDS011;5961;42.640;23.380;2023-07-08T05:51:33;7.93;;;6.97;;
11807;SDS011;5961;42.640;23.380;2023-07-08T05:54:00;10.93;;;7.80;;
11807;SDS011;5961;42.640;23.380;2023-07-08T05:56:26;9.43;;;7.17;;
11807;SDS011;5961;42.640;23.380;2023-07-08T05:58:54;10.70;;;7.50;;
11807;SDS011;5961;42.640;23.380;2023-07-08T06:01:21;11.30;;;7.23;;
11807;SDS011;5961;42.640;23.380;2023-07-08T06:03:48;10.20;;;7.07;;
11807;SDS011;5961;42.640;23.380;2023-07-08T06:06:15;8.10;;;6.87;;
11807;SDS011;5961;42.640;23.380;2023-07-08T06:08:41;8.53;;;6.97;;
11807;SDS011;5961;42.640;23.380;2023-07-08T06:11:08;9.13;;;7.47;;
11807;SDS011;5961;42.640;23.380;2023-07-08T06:13:35;8.43;;;7.53;;
11807;SDS011;5961;42.640;23.380;2023-07-08T06:16:03;8.53;;;7.20;;
11807;SDS011;5961;42.640;23.380;2023-07-08T06:18:30;11.37;;;7.37;;
11807;SDS011;5961;42.640;23.380;2023-07-08T06:20:57;9.47;;;7.37;;
11807;SDS011;5961;42.640;23.380;2023-07-08T06:23:24;9.17;;;7.40;;
11807;SDS011;5961;42.640;23.380;2023-07-08T06:25:51;8.00;;;7.20;;
11807;SDS011;5961;42.640;23.380;2023-07-08T06:28:18;8.03;;;7.23;;
11807;SDS011;5961;42.640;23.380;2023-07-08T06:30:45;8.30;;;7.50;;
11807;SDS011;5961;42.640;23.380;2023-07-08T06:33:13;10.03;;;7.40;;
11807;SDS011;5961;42.640;23.380;2023-07-08T06:35:40;8.97;;;7.80;;
11807;SDS011;5961;42.640;23.380;2023-07-08T06:38:07;10.53;;;8.57;;
11807;SDS011;5961;42.640;23.380;2023-07-08T06:40:35;8.40;;;7.47;;
11807;SDS011;5961;42.640;23.380;2023-07-08T06:43:02;8.33;;;7.20;;
11807;SDS011;5961;42.640;23.380;2023-07-08T06:45:29;11.13;;;7.23;;
11807;SDS011;5961;42.640;23.380;2023-07-08T06:47:56;8.43;;;7.03;;
11807;SDS011;5961;42.640;23.380;2023-07-08T06:50:24;9.73;;;7.33;;
11807;SDS011;5961;42.640;23.380;2023-07-08T06:52:50;8.30;;;7.37;;
11807;SDS011;5961;42.640;23.380;2023-07-08T06:55:17;12.53;;;7.27;;
11807;SDS011;5961;42.640;23.380;2023-07-08T06:57:44;9.53;;;7.03;;
11807;SDS011;5961;42.640;23.380;2023-07-08T07:00:11;8.07;;;6.87;;
11807;SDS011;5961;42.640;23.380;2023-07-08T07:02:38;7.27;;;6.57;;
11807;SDS011;5961;42.640;23.380;2023-07-08T07:05:05;8.47;;;7.00;;
11807;SDS011;5961;42.640;23.380;2023-07-08T07:07:33;6.83;;;6.07;;
11807;SDS011;5961;42.640;23.380;2023-07-08T07:10:00;7.33;;;6.63;;
11807;SDS011;5961;42.640;23.380;2023-07-08T07:12:28;8.13;;;6.10;;
11807;SDS011;5961;42.640;23.380;2023-07-08T07:14:54;8.07;;;5.75;;
11807;SDS011;5961;42.640;23.380;2023-07-08T07:17:22;8.50;;;6.30;;
11807;SDS011;5961;42.640;23.380;2023-07-08T07:19:50;8.83;;;6.60;;
11807;SDS011;5961;42.640;23.380;2023-07-08T07:22:17;8.10;;;6.57;;
11807;SDS011;5961;42.640;23.380;2023-07-08T07:24:45;8.03;;;7.23;;
11807;SDS011;5961;42.640;23.380;2023-07-08T07:27:12;8.93;;;6.73;;
11807;SDS011;5961;42.640;23.380;2023-07-08T07:29:40;8.90;;;6.82;;
11807;SDS011;5961;42.640;23.380;2023-07-08T07:32:08;9.47;;;7.00;;
11807;SDS011;5961;42.640;23.380;2023-07-08T07:34:35;8.45;;;6.43;;
11807;SDS011;5961;42.640;23.380;2023-07-08T07:37:01;12.68;;;6.85;;
11807;SDS011;5961;42.640;23.380;2023-07-08T07:39:28;10.20;;;7.43;;
11807;SDS011;5961;42.640;23.380;2023-07-08T07:41:56;9.75;;;6.97;;
11807;SDS011;5961;42.640;23.380;2023-07-08T07:44:23;8.63;;;6.65;;
11807;SDS011;5961;42.640;23.380;2023-07-08T07:46:49;7.97;;;6.82;;
11807;SDS011;5961;42.640;23.380;2023-07-08T07:49:18;8.40;;;7.60;;
11807;SDS011;5961;42.640;23.380;2023-07-08T07:51:45;9.00;;;6.97;;
11807;SDS011;5961;42.640;23.380;2023-07-08T07:54:11;7.53;;;6.68;;
11807;SDS011;5961;42.640;23.380;2023-07-08T07:56:38;8.37;;;6.50;;
11807;SDS011;5961;42.640;23.380;2023-07-08T07:59:06;7.00;;;6.30;;
11807;SDS011;5961;42.640;23.380;2023-07-08T08:01:33;8.67;;;7.57;;
11807;SDS011;5961;42.640;23.380;2023-07-08T08:04:00;7.10;;;6.27;;
11807;SDS011;5961;42.640;23.380;2023-07-08T08:06:26;7.17;;;6.47;;
11807;SDS011;5961;42.640;23.380;2023-07-08T08:08:53;7.90;;;6.73;;
11807;SDS011;5961;42.640;23.380;2023-07-08T08:11:21;8.93;;;6.13;;
11807;SDS011;5961;42.640;23.380;2023-07-08T08:13:50;7.17;;;6.27;;
11807;SDS011;5961;42.640;23.380;2023-07-08T08:16:18;9.67;;;6.50;;
11807;SDS011;5961;42.640;23.380;2023-07-08T08:18:45;8.27;;;6.60;;
11807;SDS011;5961;42.640;23.380;2023-07-08T08:21:12;8.95;;;6.53;;
11807;SDS011;5961;42.640;23.380;2023-07-08T08:23:38;7.43;;;6.63;;
11807;SDS011;5961;42.640;23.380;2023-07-08T08:26:05;7.90;;;7.10;;
11807;SDS011;5961;42.640;23.380;2023-07-08T08:28:32;8.40;;;6.75;;
11807;SDS011;5961;42.640;23.380;2023-07-08T08:30:58;7.07;;;6.38;;
11807;SDS011;5961;42.640;23.380;2023-07-08T08:33:26;8.55;;;7.25;;
11807;SDS011;5961;42.640;23.380;2023-07-08T08:35:53;7.28;;;6.57;;
11807;SDS011;5961;42.640;23.380;2023-07-08T08:38:21;8.05;;;6.70;;
11807;SDS011;5961;42.640;23.380;2023-07-08T08:40:48;7.63;;;6.75;;
11807;SDS011;5961;42.640;23.380;2023-07-08T08:43:15;7.25;;;6.40;;
11807;SDS011;5961;42.640;23.380;2023-07-08T08:45:48;9.15;;;6.65;;
11807;SDS011;5961;42.640;23.380;2023-07-08T08:48:19;7.00;;;6.30;;
11807;SDS011;5961;42.640;23.380;2023-07-08T08:50:49;7.03;;;6.32;;
11807;SDS011;5961;42.640;23.380;2023-07-08T08:53:18;8.48;;;6.78;;
11807;SDS011;5961;42.640;23.380;2023-07-08T08:55:48;7.72;;;6.93;;
11807;SDS011;5961;42.640;23.380;2023-07-08T08:58:21;8.02;;;6.45;;
11807;SDS011;5961;42.640;23.380;2023-07-08T09:00:58;7.55;;;6.85;;
11807;SDS011;5961;42.640;23.380;2023-07-08T09:03:32;9.02;;;6.72;;
11807;SDS011;5961;42.640;23.380;2023-07-08T09:06:09;8.02;;;6.97;;
11807;SDS011;5961;42.640;23.380;2023-07-08T09:08:38;7.75;;;6.25;;
11807;SDS011;5961;42.640;23.380;2023-07-08T09:11:09;8.23;;;6.97;;
11807;SDS011;5961;42.640;23.380;2023-07-08T09:13:41;11.30;;;7.40;;
11807;SDS011;5961;42.640;23.380;2023-07-08T09:16:10;11.43;;;6.78;;
11807;SDS011;5961;42.640;23.380;2023-07-08T09:18:45;8.52;;;6.57;;
11807;SDS011;5961;42.640;23.380;2023-07-08T09:21:24;6.82;;;6.13;;
11807;SDS011;5961;42.640;23.380;2023-07-08T09:23:55;7.82;;;6.88;;
11807;SDS011;5961;42.640;23.380;2023-07-08T09:26:26;7.20;;;6.50;;
11807;SDS011;5961;42.640;23.380;2023-07-08T09:28:55;7.65;;;6.88;;
11807;SDS011;5961;42.640;23.380;2023-07-08T09:31:23;10.65;;;6.03;;
11807;SDS011;5961;42.640;23.380;2023-07-08T09:33:52;7.15;;;6.45;;
11807;SDS011;5961;42.640;23.380;2023-07-08T09:36:21;7.05;;;6.45;;
11807;SDS011;5961;42.640;23.380;2023-07-08T09:38:51;6.68;;;6.07;;
11807;SDS011;5961;42.640;23.380;2023-07-08T09:41:31;8.80;;;6.55;;
11807;SDS011;5961;42.640;23.380;2023-07-08T09:44:04;7.65;;;6.45;;
11807;SDS011;5961;42.640;23.380;2023-07-08T09:46:35;6.38;;;5.78;;
11807;SDS011;5961;42.640;23.380;2023-07-08T09:49:15;8.90;;;6.35;;
11807;SDS011;5961;42.640;23.380;2023-07-08T09:51:45;7.95;;;5.72;;
11807;SDS011;5961;42.640;23.380;2023-07-08T09:54:15;6.88;;;6.03;;
11807;SDS011;5961;42.640;23.380;2023-07-08T09:56:43;6.75;;;6.07;;
11807;SDS011;5961;42.640;23.380;2023-07-08T09:59:14;8.10;;;6.05;;
11807;SDS011;5961;42.640;23.380;2023-07-08T10:01:41;8.07;;;5.20;;
11807;SDS011;5961;42.640;23.380;2023-07-08T10:04:09;6.72;;;6.07;;
11807;SDS011;5961;42.640;23.380;2023-07-08T10:06:37;6.78;;;6.07;;
11807;SDS011;5961;42.640;23.380;2023-07-08T10:09:10;7.47;;;6.10;;
11807;SDS011;5961;42.640;23.380;2023-07-08T10:11:51;6.50;;;5.70;;
11807;SDS011;5961;42.640;23.380;2023-07-08T10:14:23;6.30;;;5.70;;
11807;SDS011;5961;42.640;23.380;2023-07-08T10:16:53;6.53;;;5.53;;
11807;SDS011;5961;42.640;23.380;2023-07-08T10:19:20;7.13;;;5.72;;
11807;SDS011;5961;42.640;23.380;2023-07-08T10:21:51;8.93;;;5.15;;
11807;SDS011;5961;42.640;23.380;2023-07-08T10:24:30;6.28;;;5.65;;
11807;SDS011;5961;42.640;23.380;2023-07-08T10:27:08;6.55;;;5.43;;
11807;SDS011;5961;42.640;23.380;2023-07-08T10:29:47;11.70;;;5.82;;
11807;SDS011;5961;42.640;23.380;2023-07-08T10:32:22;6.63;;;4.90;;
11807;SDS011;5961;42.640;23.380;2023-07-08T10:34:58;6.32;;;5.35;;
11807;SDS011;5961;42.640;23.380;2023-07-08T10:37:31;6.60;;;4.90;;
11807;SDS011;5961;42.640;23.380;2023-07-08T10:40:17;5.45;;;4.95;;
11807;SDS011;5961;42.640;23.380;2023-07-08T10:42:58;6.05;;;4.97;;
11807;SDS011;5961;42.640;23.380;2023-07-08T10:45:36;5.88;;;5.38;;
11807;SDS011;5961;42.640;23.380;2023-07-08T10:48:15;6.93;;;5.85;;
11807;SDS011;5961;42.640;23.380;2023-07-08T10:50:57;5.65;;;5.15;;
11807;SDS011;5961;42.640;23.380;2023-07-08T10:53:46;5.75;;;5.22;;
11807;SDS011;5961;42.640;23.380;2023-07-08T10:56:28;5.60;;;5.10;;
11807;SDS011;5961;42.640;23.380;2023-07-08T10:59:06;5.47;;;4.88;;
11807;SDS011;5961;42.640;23.380;2023-07-08T11:01:56;5.10;;;4.60;;
11807;SDS011;5961;42.640;23.380;2023-07-08T11:04:46;5.20;;;4.70;;
11807;SDS011;5961;42.640;23.380;2023-07-08T11:07:28;5.43;;;4.60;;
11807;SDS011;5961;42.640;23.380;2023-07-08T11:10:02;5.10;;;4.60;;
11807;SDS011;5961;42.640;23.380;2023-07-08T11:12:36;6.38;;;4.43;;
11807;SDS011;5961;42.640;23.380;2023-07-08T11:15:13;5.22;;;4.72;;
11807;SDS011;5961;42.640;23.380;2023-07-08T11:17:46;4.90;;;4.50;;
11807;SDS011;5961;42.640;23.380;2023-07-08T11:20:18;5.68;;;4.88;;
11807;SDS011;5961;42.640;23.380;2023-07-08T11:22:49;5.43;;;4.93;;
11807;SDS011;5961;42.640;23.380;2023-07-08T11:25:21;5.20;;;4.70;;
11807;SDS011;5961;42.640;23.380;2023-07-08T11:27:55;5.43;;;4.93;;
11807;SDS011;5961;42.640;23.380;2023-07-08T11:30:25;5.28;;;4.47;;
11807;SDS011;5961;42.640;23.380;2023-07-08T11:32:57;5.07;;;4.57;;
11807;SDS011;5961;42.640;23.380;2023-07-08T11:35:32;5.55;;;4.53;;
11807;SDS011;5961;42.640;23.380;2023-07-08T11:38:02;4.72;;;4.30;;
11807;SDS011;5961;42.640;23.380;2023-07-08T11:40:30;5.15;;;4.70;;
11807;SDS011;5961;42.640;23.380;2023-07-08T11:43:05;5.68;;;5.10;;
11807;SDS011;5961;42.640;23.380;2023-07-08T11:45:32;6.25;;;4.90;;
11807;SDS011;5961;42.640;23.380;2023-07-08T11:48:03;6.53;;;4.60;;
11807;SDS011;5961;42.640;23.380;2023-07-08T11:50:35;5.70;;;4.55;;
11807;SDS011;5961;42.640;23.380;2023-07-08T11:53:06;4.80;;;4.28;;
11807;SDS011;5961;42.640;23.380;2023-07-08T11:55:35;5.45;;;4.95;;
11807;SDS011;5961;42.640;23.380;2023-07-08T11:58:07;7.90;;;4.93;;
11807;SDS011;5961;42.640;23.380;2023-07-08T12:00:34;4.95;;;4.50;;
11807;SDS011;5961;42.640;23.380;2023-07-08T12:03:17;6.25;;;5.18;;
11807;SDS011;5961;42.640;23.380;2023-07-08T12:05:45;5.75;;;5.25;;
11807;SDS011;5961;42.640;23.380;2023-07-08T12:08:13;4.82;;;4.30;;
11807;SDS011;5961;42.640;23.380;2023-07-08T12:10:45;4.70;;;4.20;;
11807;SDS011;5961;42.640;23.380;2023-07-08T12:13:17;4.78;;;4.32;;
11807;SDS011;5961;42.640;23.380;2023-07-08T12:15:45;4.82;;;4.43;;
11807;SDS011;5961;42.640;23.380;2023-07-08T12:18:13;4.80;;;4.40;;
11807;SDS011;5961;42.640;23.380;2023-07-08T12:20:43;4.90;;;4.40;;
11807;SDS011;5961;42.640;23.380;2023-07-08T12:23:13;5.22;;;4.38;;
11807;SDS011;5961;42.640;23.380;2023-07-08T12:25:41;4.50;;;4.10;;
11807;SDS011;5961;42.640;23.380;2023-07-08T12:28:08;5.18;;;4.35;;
11807;SDS011;5961;42.640;23.380;2023-07-08T12:30:38;5.47;;;4.05;;
11807;SDS011;5961;42.640;23.380;2023-07-08T12:33:09;4.88;;;4.47;;
11807;SDS011;5961;42.640;23.380;2023-07-08T12:35:38;5.70;;;4.03;;
11807;SDS011;5961;42.640;23.380;2023-07-08T12:38:10;4.88;;;4.47;;
11807;SDS011;5961;42.640;23.380;2023-07-08T12:40:45;5.65;;;4.38;;
11807;SDS011;5961;42.640;23.380;2023-07-08T12:43:12;7.60;;;4.10;;
11807;SDS011;5961;42.640;23.380;2023-07-08T12:45:40;4.07;;;3.75;;
11807;SDS011;5961;42.640;23.380;2023-07-08T12:48:08;6.72;;;4.13;;
11807;SDS011;5961;42.640;23.380;2023-07-08T12:50:35;5.25;;;4.35;;
11807;SDS011;5961;42.640;23.380;2023-07-08T12:53:03;6.30;;;3.65;;
11807;SDS011;5961;42.640;23.380;2023-07-08T12:55:35;4.07;;;3.72;;
11807;SDS011;5961;42.640;23.380;2023-07-08T12:58:03;4.10;;;3.80;;
11807;SDS011;5961;42.640;23.380;2023-07-08T13:00:31;6.13;;;3.50;;
11807;SDS011;5961;42.640;23.380;2023-07-08T13:03:05;4.00;;;3.67;;
11807;SDS011;5961;42.640;23.380;2023-07-08T13:05:34;3.90;;;3.50;;
11807;SDS011;5961;42.640;23.380;2023-07-08T13:08:02;4.18;;;3.67;;
11807;SDS011;5961;42.640;23.380;2023-07-08T13:10:31;5.28;;;3.50;;
11807;SDS011;5961;42.640;23.380;2023-07-08T13:13:02;3.75;;;3.45;;
11807;SDS011;5961;42.640;23.380;2023-07-08T13:15:31;4.30;;;3.90;;
11807;SDS011;5961;42.640;23.380;2023-07-08T13:18:05;3.97;;;3.67;;
11807;SDS011;5961;42.640;23.380;2023-07-08T13:20:39;3.72;;;3.42;;
11807;SDS011;5961;42.640;23.380;2023-07-08T13:23:07;3.90;;;3.55;;
11807;SDS011;5961;42.640;23.380;2023-07-08T13:25:36;4.20;;;3.53;;
11807;SDS011;5961;42.640;23.380;2023-07-08T13:28:13;3.60;;;3.30;;
11807;SDS011;5961;42.640;23.380;2023-07-08T13:30:49;4.18;;;3.70;;
11807;SDS011;5961;42.640;23.380;2023-07-08T13:33:19;5.57;;;3.55;;
11807;SDS011;5961;42.640;23.380;2023-07-08T13:35:46;4.68;;;3.45;;
11807;SDS011;5961;42.640;23.380;2023-07-08T13:38:15;4.70;;;3.40;;
11807;SDS011;5961;42.640;23.380;2023-07-08T13:40:44;13.43;;;3.83;;
11807;SDS011;5961;42.640;23.380;2023-07-08T13:43:12;4.22;;;3.70;;
11807;SDS011;5961;42.640;23.380;2023-07-08T13:45:43;4.00;;;3.60;;
11807;SDS011;5961;42.640;23.380;2023-07-08T13:48:14;6.15;;;3.50;;
11807;SDS011;5961;42.640;23.380;2023-07-08T13:50:49;4.60;;;3.78;;
11807;SDS011;5961;42.640;23.380;2023-07-08T13:53:23;5.88;;;3.55;;
11807;SDS011;5961;42.640;23.380;2023-07-08T13:55:58;4.13;;;3.72;;
11807;SDS011;5961;42.640;23.380;2023-07-08T13:58:27;3.60;;;3.30;;
11807;SDS011;5961;42.640;23.380;2023-07-08T14:00:56;4.63;;;3.67;;
11807;SDS011;5961;42.640;23.380;2023-07-08T14:03:24;5.68;;;3.53;;
11807;SDS011;5961;42.640;23.380;2023-07-08T14:05:52;4.43;;;3.42;;
11807;SDS011;5961;42.640;23.380;2023-07-08T14:08:19;4.78;;;3.67;;
11807;SDS011;5961;42.640;23.380;2023-07-08T14:10:47;4.10;;;3.50;;
11807;SDS011;5961;42.640;23.380;2023-07-08T14:13:14;5.00;;;3.58;;
11807;SDS011;5961;42.640;23.380;2023-07-08T14:15:42;3.67;;;3.10;;
11807;SDS011;5961;42.640;23.380;2023-07-08T14:18:10;5.50;;;3.80;;
11807;SDS011;5961;42.640;23.380;2023-07-08T14:20:37;4.82;;;3.63;;
11807;SDS011;5961;42.640;23.380;2023-07-08T14:23:07;3.65;;;3.30;;
11807;SDS011;5961;42.640;23.380;2023-07-08T14:25:35;5.10;;;3.70;;
11807;SDS011;5961;42.640;23.380;2023-07-08T14:28:02;5.85;;;3.20;;
11807;SDS011;5961;42.640;23.380;2023-07-08T14:30:30;3.80;;;3.50;;
11807;SDS011;5961;42.640;23.380;2023-07-08T14:32:57;4.07;;;3.50;;
11807;SDS011;5961;42.640;23.380;2023-07-08T14:35:24;8.23;;;4.55;;
11807;SDS011;5961;42.640;23.380;2023-07-08T14:37:53;3.80;;;3.45;;
11807;SDS011;5961;42.640;23.380;2023-07-08T14:40:24;8.20;;;3.85;;
11807;SDS011;5961;42.640;23.380;2023-07-08T14:42:56;4.93;;;3.45;;
11807;SDS011;5961;42.640;23.380;2023-07-08T14:45:26;4.43;;;3.50;;
11807;SDS011;5961;42.640;23.380;2023-07-08T14:47:55;5.70;;;4.18;;
11807;SDS011;5961;42.640;23.380;2023-07-08T14:50:22;6.65;;;3.72;;
11807;SDS011;5961;42.640;23.380;2023-07-08T14:52:50;5.10;;;3.75;;
11807;SDS011;5961;42.640;23.380;2023-07-08T14:55:17;4.30;;;3.70;;